Hangjun9 — BTYL — position and weather

sailwx.info

Track history (hours):
 
Tides and Currents Weather Stations Pressure Air Temp Water Temp Dewpoint Dewpoint Depression Visibility Wind Speed Wind Dir Waves Ship Positions

Hangjun9

Last reported at 2014-Aug-01 06:05 UTC. Time now 2014-Aug-01 07:58 UTC.
Position N 31°38' E 121°17'.

Length 85 m; draft 3.5 m.

Type: Dredging. MMSI: 412070110.

Date/timePositionNaut miles runAvg speedWind from/ knotsBaromVisibWave heightAir tempDewpointWater temp
2014-Aug-01 06:05N 31°38' E 121°17'0 0.1
2014-Aug-01 05:31N 31°38' E 121°18'0 0.2
2014-Aug-01 03:31N 31°38' E 121°18'5 5.5
2014-Aug-01 02:33N 31°33' E 121°20'1 1.0
2014-Aug-01 01:33N 31°33' E 121°19'0 0.2
2014-Aug-01 00:33N 31°33' E 121°19'0 0.5
2014-Jul-31 23:32N 31°33' E 121°20'0 0.2
2014-Jul-31 22:33N 31°33' E 121°20'4 3.7
2014-Jul-31 21:33N 31°36' E 121°17'2 1.5
2014-Jul-31 20:26N 31°38' E 121°18'0 0.0
2014-Jul-31 19:10N 31°38' E 121°18'0 0.0
2014-Jul-31 18:30N 31°38' E 121°18'0 0.0
2014-Jul-31 17:33N 31°38' E 121°18'0 0.1
2014-Jul-31 16:20N 31°38' E 121°18'0 0.0
2014-Jul-31 15:16N 31°38' E 121°18'0 0.0
2014-Jul-31 14:33N 31°38' E 121°18'0 0.0
2014-Jul-31 13:31N 31°38' E 121°18'0 0.0
2014-Jul-31 12:32N 31°38' E 121°18'2 1.4
2014-Jul-31 11:20N 31°36' E 121°18'3 3.9
2014-Jul-31 10:33N 31°33' E 121°19'0 0.2
2014-Jul-31 09:33N 31°33' E 121°19'0 0.4
2014-Jul-31 08:30N 31°33' E 121°19'0 0.2
2014-Jul-31 07:33N 31°34' E 121°19'0 0.3
2014-Jul-31 06:33N 31°34' E 121°18'0 0.3
2014-Jul-31 05:28N 31°34' E 121°19'1 0.9
2014-Jul-31 04:33N 31°33' E 121°19'1 0.9
2014-Jul-31 03:31N 31°34' E 121°20'1 0.7
2014-Jul-31 02:33N 31°34' E 121°19'1 0.8
2014-Jul-31 01:33N 31°33' E 121°20'0 0.2
2014-Jul-31 00:30N 31°33' E 121°20'1 0.9
2014-Jul-30 23:33N 31°34' E 121°19'1 0.6
2014-Jul-30 22:33N 31°34' E 121°20'1 0.9
2014-Jul-30 21:33N 31°34' E 121°19'3 3.0
2014-Jul-30 20:33N 31°37' E 121°18'0 0.0
2014-Jul-30 19:33N 31°37' E 121°18'0 0.0
2014-Jul-30 18:25N 31°37' E 121°18'0 0.0
2014-Jul-30 17:28N 31°37' E 121°18'0 0.1
2014-Jul-30 16:33N 31°37' E 121°18'0 0.1
2014-Jul-30 15:33N 31°37' E 121°18'0 0.0
2014-Jul-30 14:11N 31°37' E 121°18'0 0.0
2014-Jul-30 13:25N 31°37' E 121°18'0 0.0
2014-Jul-30 11:29N 31°37' E 121°18'4 3.8
2014-Jul-30 10:32N 31°33' E 121°19'1 0.6
2014-Jul-30 09:32N 31°33' E 121°18'0 0.5
2014-Jul-30 08:34N 31°34' E 121°19'0 0.5
2014-Jul-30 07:33N 31°33' E 121°19'0 0.3
2014-Jul-30 06:32N 31°33' E 121°19'0 0.4
2014-Jul-30 05:32N 31°34' E 121°19'1 1.1
2014-Jul-30 04:32N 31°33' E 121°20'0 0.3
2014-Jul-30 03:34N 31°33' E 121°20'1 0.7
2014-Jul-30 02:33N 31°34' E 121°19'0 0.5
2014-Jul-30 01:34N 31°34' E 121°20'1 0.9
2014-Jul-30 00:33N 31°33' E 121°20'0 0.1
2014-Jul-29 23:27N 31°33' E 121°20'0 0.0
2014-Jul-29 22:30N 31°33' E 121°20'2 2.3
2014-Jul-29 21:31N 31°35' E 121°18'2 2.1
2014-Jul-29 20:33N 31°37' E 121°18'0 0.0
2014-Jul-29 19:33N 31°37' E 121°18'0 0.0
2014-Jul-29 18:31N 31°37' E 121°18'0 0.1
2014-Jul-29 17:28N 31°37' E 121°18'0 0.1
2014-Jul-29 16:27N 31°37' E 121°18'0 0.1
2014-Jul-29 15:33N 31°37' E 121°18'0 0.0
2014-Jul-29 14:33N 31°37' E 121°18'0 0.0
2014-Jul-29 13:28N 31°37' E 121°18'0 0.0
2014-Jul-29 12:34N 31°37' E 121°18'0 0.4
2014-Jul-29 11:32N 31°36' E 121°18'4 3.7
2014-Jul-29 10:33N 31°33' E 121°20'0 0.2
2014-Jul-29 09:33N 31°33' E 121°20'0 0.1
2014-Jul-29 08:23N 31°33' E 121°20'0 0.5
2014-Jul-29 07:33N 31°33' E 121°19'0 0.2
2014-Jul-29 06:30N 31°33' E 121°19'1 0.5
2014-Jul-29 05:30N 31°34' E 121°20'1 0.6
2014-Jul-29 04:28N 31°33' E 121°19'2 2.3
2014-Jul-29 03:31N 31°35' E 121°18'6 4.9
2014-Jul-29 02:20N 31°39' E 121°13'0 0.0
2014-Jul-28 23:29N 31°39' E 121°13'0 0.0
2014-Jul-28 22:33N 31°39' E 121°13'0 0.0
2014-Jul-28 21:33N 31°39' E 121°13'0 0.0
2014-Jul-28 20:09N 31°39' E 121°13'0 0.0
2014-Jul-28 19:33N 31°39' E 121°13'0 0.0
2014-Jul-28 16:10N 31°39' E 121°13'0 0.0
2014-Jul-28 15:03N 31°39' E 121°13'0 0.0
2014-Jul-28 14:19N 31°39' E 121°13'0 0.0
2014-Jul-28 13:29N 31°39' E 121°13'0 0.0
2014-Jul-28 12:32N 31°39' E 121°13'7 1.8
2014-Jul-28 08:32N 31°35' E 121°19'1 0.9
2014-Jul-28 07:32N 31°34' E 121°19'1 0.6
2014-Jul-28 06:33N 31°33' E 121°19'0 0.2
2014-Jul-28 05:33N 31°33' E 121°20'0 0.1
2014-Jul-28 04:33N 31°33' E 121°20'0 0.1
2014-Jul-28 03:33N 31°33' E 121°19'0 0.4
2014-Jul-28 02:33N 31°33' E 121°19'1 0.9
2014-Jul-28 01:32N 31°34' E 121°20'1 0.9
2014-Jul-28 00:33N 31°33' E 121°19'1 0.7
2014-Jul-27 23:33N 31°33' E 121°20'0 0.1
2014-Jul-27 22:30N 31°33' E 121°20'1 0.9
2014-Jul-27 21:33N 31°33' E 121°19'4 0.8
2014-Jul-27 17:03N 31°37' E 121°18'0 0.0
2014-Jul-27 16:31N 31°37' E 121°18'0 0.1
2014-Jul-27 15:33N 31°37' E 121°18'0 0.1
2014-Jul-27 14:33N 31°37' E 121°18'0 0.0
2014-Jul-27 13:33N 31°37' E 121°18'0 0.0
2014-Jul-27 12:31N 31°37' E 121°18'1 0.6
2014-Jul-27 11:28N 31°36' E 121°18'4 3.6
2014-Jul-27 10:28N 31°33' E 121°20'0 0.3
2014-Jul-27 09:33N 31°33' E 121°20'1 0.9
2014-Jul-27 08:31N 31°34' E 121°19'0 0.3
2014-Jul-27 07:33N 31°33' E 121°19'0 0.2
2014-Jul-27 06:33N 31°33' E 121°19'0 0.3
2014-Jul-27 05:33N 31°33' E 121°19'0 0.2
2014-Jul-27 04:32N 31°33' E 121°20'0 0.1
2014-Jul-27 03:33N 31°33' E 121°20'0 0.2
2014-Jul-27 02:33N 31°33' E 121°20'1 0.7
2014-Jul-27 01:33N 31°33' E 121°19'0 0.1
2014-Jul-27 00:33N 31°33' E 121°19'0 0.1
2014-Jul-26 23:33N 31°33' E 121°19'0 0.1
2014-Jul-26 22:33N 31°33' E 121°19'3 3.4
2014-Jul-26 21:33N 31°36' E 121°17'1 0.8
2014-Jul-26 20:33N 31°37' E 121°18'0 0.0
2014-Jul-26 19:21N 31°37' E 121°18'0 0.1
2014-Jul-26 18:32N 31°37' E 121°18'0 0.0
2014-Jul-26 17:05N 31°37' E 121°18'0 0.1
2014-Jul-26 16:31N 31°37' E 121°18'0 0.0
2014-Jul-26 15:23N 31°37' E 121°18'0 0.1
2014-Jul-26 14:31N 31°37' E 121°18'0 0.0
2014-Jul-26 12:22N 31°37' E 121°18'0 0.2
2014-Jul-26 11:29N 31°37' E 121°18'4 4.1
2014-Jul-26 10:30N 31°33' E 121°19'0 0.2
2014-Jul-26 09:33N 31°33' E 121°19'1 0.7
2014-Jul-26 08:33N 31°34' E 121°20'0 0.3
2014-Jul-26 07:32N 31°34' E 121°20'1 0.9
2014-Jul-26 06:33N 31°33' E 121°19'0 0.4
2014-Jul-26 05:33N 31°33' E 121°19'0 0.2
2014-Jul-26 04:33N 31°33' E 121°20'0 0.2
2014-Jul-26 03:33N 31°33' E 121°20'0 0.1
2014-Jul-26 02:33N 31°33' E 121°19'0 0.2
2014-Jul-26 01:33N 31°33' E 121°20'1 0.6
2014-Jul-26 00:33N 31°34' E 121°20'1 0.6
2014-Jul-25 23:32N 31°33' E 121°20'1 0.7
2014-Jul-25 22:33N 31°34' E 121°19'3 2.5
2014-Jul-25 21:32N 31°36' E 121°17'1 0.4
2014-Jul-25 18:19N 31°37' E 121°18'0 0.0
2014-Jul-25 17:32N 31°37' E 121°18'0 0.0
2014-Jul-25 16:33N 31°37' E 121°18'0 0.0
2014-Jul-25 15:32N 31°37' E 121°18'0 0.0
2014-Jul-25 14:33N 31°37' E 121°18'0 0.1
2014-Jul-25 13:25N 31°37' E 121°18'0 0.1
2014-Jul-25 11:33N 31°37' E 121°18'4 4.0
2014-Jul-25 10:32N 31°33' E 121°20'0 0.1
2014-Jul-25 09:33N 31°33' E 121°20'0 0.1
2014-Jul-25 08:32N 31°33' E 121°20'0 0.2
2014-Jul-25 07:33N 31°33' E 121°19'1 0.6
2014-Jul-25 06:32N 31°34' E 121°20'1 0.6
2014-Jul-25 05:33N 31°34' E 121°19'1 0.6
2014-Jul-25 04:33N 31°33' E 121°19'4 1.2
2014-Jul-25 01:22N 31°37' E 121°18'0 0.0
2014-Jul-25 00:31N 31°37' E 121°18'0 0.0
2014-Jul-24 23:29N 31°37' E 121°18'0 0.0
2014-Jul-24 22:22N 31°37' E 121°18'0 0.0
2014-Jul-24 21:19N 31°37' E 121°18'0 0.0
2014-Jul-24 19:14N 31°37' E 121°18'0 0.1
2014-Jul-24 18:33N 31°37' E 121°18'0 0.1
2014-Jul-24 17:33N 31°37' E 121°18'0 0.0
2014-Jul-24 15:33N 31°37' E 121°18'0 0.0
2014-Jul-24 14:08N 31°37' E 121°18'0 0.0
2014-Jul-24 13:32N 31°37' E 121°18'0 0.0
2014-Jul-24 12:22N 31°37' E 121°18'0 0.1
2014-Jul-24 11:30N 31°37' E 121°18'0 0.0
2014-Jul-24 10:32N 31°37' E 121°18'0 0.0
2014-Jul-24 09:33N 31°37' E 121°18'0 0.1
2014-Jul-24 08:31N 31°37' E 121°18'0 0.1
2014-Jul-24 07:26N 31°37' E 121°18'0 0.1
2014-Jul-24 06:33N 31°37' E 121°18'0 0.1
2014-Jul-24 05:33N 31°37' E 121°18'0 0.0
2014-Jul-24 04:33N 31°37' E 121°18'0 0.0
2014-Jul-24 03:19N 31°37' E 121°18'0 0.0
2014-Jul-24 02:28N 31°37' E 121°18'0 0.0
2014-Jul-24 01:10N 31°37' E 121°18'0 0.1
2014-Jul-24 00:28N 31°37' E 121°18'0 0.1
2014-Jul-23 23:33N 31°37' E 121°18'0 0.0
2014-Jul-23 22:31N 31°37' E 121°18'0 0.0
2014-Jul-23 21:33N 31°37' E 121°18'0 0.0
2014-Jul-23 20:33N 31°37' E 121°18'0 0.0
2014-Jul-23 19:33N 31°37' E 121°18'0 0.1
2014-Jul-23 17:33N 31°37' E 121°18'0 0.0
2014-Jul-23 16:33N 31°37' E 121°18'0 0.0
2014-Jul-23 15:33N 31°37' E 121°18'0 0.0
2014-Jul-23 14:33N 31°37' E 121°18'0 0.0
2014-Jul-23 12:31N 31°37' E 121°18'0 0.1
2014-Jul-23 11:28N 31°37' E 121°18'4 4.8
2014-Jul-23 10:33N 31°33' E 121°20'0 0.4
2014-Jul-23 09:33N 31°33' E 121°20'0 0.4
2014-Jul-23 08:26N 31°33' E 121°20'1 1.1
2014-Jul-23 07:32N 31°34' E 121°19'1 1.1
2014-Jul-23 06:33N 31°34' E 121°20'1 0.8
2014-Jul-23 05:33N 31°34' E 121°20'0 0.4
2014-Jul-23 04:33N 31°33' E 121°19'0 0.2
2014-Jul-23 03:33N 31°33' E 121°19'1 0.9
2014-Jul-23 02:33N 31°33' E 121°20'5 5.0
2014-Jul-23 01:33N 31°37' E 121°17'0 0.1
2014-Jul-23 00:33N 31°37' E 121°18'0 0.0
2014-Jul-22 23:32N 31°37' E 121°18'0 0.0
2014-Jul-22 22:32N 31°37' E 121°18'0 0.0
2014-Jul-22 21:32N 31°37' E 121°18'0 0.0
2014-Jul-22 20:32N 31°37' E 121°18'0 0.0
2014-Jul-22 19:33N 31°37' E 121°18'0 0.0
2014-Jul-22 18:33N 31°37' E 121°18'0 0.0
2014-Jul-22 17:31N 31°37' E 121°18'0 0.1
2014-Jul-22 16:30N 31°37' E 121°17'0 0.0
2014-Jul-22 15:32N 31°37' E 121°17'0 0.0
2014-Jul-22 14:33N 31°37' E 121°17'0 0.0
2014-Jul-22 13:33N 31°37' E 121°17'0 0.0
2014-Jul-22 12:33N 31°37' E 121°17'0 0.0
2014-Jul-22 11:33N 31°37' E 121°17'0 0.1
2014-Jul-22 10:33N 31°37' E 121°17'0 0.0
2014-Jul-22 08:25N 31°37' E 121°18'0 0.0
2014-Jul-22 06:14N 31°37' E 121°18'  
Track history (hours):
 
Tides and Currents Weather Stations Pressure Air Temp Water Temp Dewpoint Dewpoint Depression Visibility Wind Speed Wind Dir Waves Ship Positions

Hangjun9

Last reported at 2014-Aug-01 06:05 UTC. Time now 2014-Aug-01 07:58 UTC.
Position N 31°38' E 121°17'.

Length 85 m; draft 3.5 m.

Type: Dredging. MMSI: 412070110.

Date/timePositionNaut miles runAvg speedWind from/ knotsBaromVisibWave heightAir tempDewpointWater temp
2014-Aug-01 06:05N 31°38' E 121°17'0 0.1
2014-Aug-01 05:31N 31°38' E 121°18'0 0.2
2014-Aug-01 03:31N 31°38' E 121°18'5 5.5
2014-Aug-01 02:33N 31°33' E 121°20'1 1.0
2014-Aug-01 01:33N 31°33' E 121°19'0 0.2
2014-Aug-01 00:33N 31°33' E 121°19'0 0.5
2014-Jul-31 23:32N 31°33' E 121°20'0 0.2
2014-Jul-31 22:33N 31°33' E 121°20'4 3.7
2014-Jul-31 21:33N 31°36' E 121°17'2 1.5
2014-Jul-31 20:26N 31°38' E 121°18'0 0.0
2014-Jul-31 19:10N 31°38' E 121°18'0 0.0
2014-Jul-31 18:30N 31°38' E 121°18'0 0.0
2014-Jul-31 17:33N 31°38' E 121°18'0 0.1
2014-Jul-31 16:20N 31°38' E 121°18'0 0.0
2014-Jul-31 15:16N 31°38' E 121°18'0 0.0
2014-Jul-31 14:33N 31°38' E 121°18'0 0.0
2014-Jul-31 13:31N 31°38' E 121°18'0 0.0
2014-Jul-31 12:32N 31°38' E 121°18'2 1.4
2014-Jul-31 11:20N 31°36' E 121°18'3 3.9
2014-Jul-31 10:33N 31°33' E 121°19'0 0.2
2014-Jul-31 09:33N 31°33' E 121°19'0 0.4
2014-Jul-31 08:30N 31°33' E 121°19'0 0.2
2014-Jul-31 07:33N 31°34' E 121°19'0 0.3
2014-Jul-31 06:33N 31°34' E 121°18'0 0.3
2014-Jul-31 05:28N 31°34' E 121°19'1 0.9
2014-Jul-31 04:33N 31°33' E 121°19'1 0.9
2014-Jul-31 03:31N 31°34' E 121°20'1 0.7
2014-Jul-31 02:33N 31°34' E 121°19'1 0.8
2014-Jul-31 01:33N 31°33' E 121°20'0 0.2
2014-Jul-31 00:30N 31°33' E 121°20'1 0.9
2014-Jul-30 23:33N 31°34' E 121°19'1 0.6
2014-Jul-30 22:33N 31°34' E 121°20'1 0.9
2014-Jul-30 21:33N 31°34' E 121°19'3 3.0
2014-Jul-30 20:33N 31°37' E 121°18'0 0.0
2014-Jul-30 19:33N 31°37' E 121°18'0 0.0
2014-Jul-30 18:25N 31°37' E 121°18'0 0.0
2014-Jul-30 17:28N 31°37' E 121°18'0 0.1
2014-Jul-30 16:33N 31°37' E 121°18'0 0.1
2014-Jul-30 15:33N 31°37' E 121°18'0 0.0
2014-Jul-30 14:11N 31°37' E 121°18'0 0.0
2014-Jul-30 13:25N 31°37' E 121°18'0 0.0
2014-Jul-30 11:29N 31°37' E 121°18'4 3.8
2014-Jul-30 10:32N 31°33' E 121°19'1 0.6
2014-Jul-30 09:32N 31°33' E 121°18'0 0.5
2014-Jul-30 08:34N 31°34' E 121°19'0 0.5
2014-Jul-30 07:33N 31°33' E 121°19'0 0.3
2014-Jul-30 06:32N 31°33' E 121°19'0 0.4
2014-Jul-30 05:32N 31°34' E 121°19'1 1.1
2014-Jul-30 04:32N 31°33' E 121°20'0 0.3
2014-Jul-30 03:34N 31°33' E 121°20'1 0.7
2014-Jul-30 02:33N 31°34' E 121°19'0 0.5
2014-Jul-30 01:34N 31°34' E 121°20'1 0.9
2014-Jul-30 00:33N 31°33' E 121°20'0 0.1
2014-Jul-29 23:27N 31°33' E 121°20'0 0.0
2014-Jul-29 22:30N 31°33' E 121°20'2 2.3
2014-Jul-29 21:31N 31°35' E 121°18'2 2.1
2014-Jul-29 20:33N 31°37' E 121°18'0 0.0
2014-Jul-29 19:33N 31°37' E 121°18'0 0.0
2014-Jul-29 18:31N 31°37' E 121°18'0 0.1
2014-Jul-29 17:28N 31°37' E 121°18'0 0.1
2014-Jul-29 16:27N 31°37' E 121°18'0 0.1
2014-Jul-29 15:33N 31°37' E 121°18'0 0.0
2014-Jul-29 14:33N 31°37' E 121°18'0 0.0
2014-Jul-29 13:28N 31°37' E 121°18'0 0.0
2014-Jul-29 12:34N 31°37' E 121°18'0 0.4
2014-Jul-29 11:32N 31°36' E 121°18'4 3.7
2014-Jul-29 10:33N 31°33' E 121°20'0 0.2
2014-Jul-29 09:33N 31°33' E 121°20'0 0.1
2014-Jul-29 08:23N 31°33' E 121°20'0 0.5
2014-Jul-29 07:33N 31°33' E 121°19'0 0.2
2014-Jul-29 06:30N 31°33' E 121°19'1 0.5
2014-Jul-29 05:30N 31°34' E 121°20'1 0.6
2014-Jul-29 04:28N 31°33' E 121°19'2 2.3
2014-Jul-29 03:31N 31°35' E 121°18'6 4.9
2014-Jul-29 02:20N 31°39' E 121°13'0 0.0
2014-Jul-28 23:29N 31°39' E 121°13'0 0.0
2014-Jul-28 22:33N 31°39' E 121°13'0 0.0
2014-Jul-28 21:33N 31°39' E 121°13'0 0.0
2014-Jul-28 20:09N 31°39' E 121°13'0 0.0
2014-Jul-28 19:33N 31°39' E 121°13'0 0.0
2014-Jul-28 16:10N 31°39' E 121°13'0 0.0
2014-Jul-28 15:03N 31°39' E 121°13'0 0.0
2014-Jul-28 14:19N 31°39' E 121°13'0 0.0
2014-Jul-28 13:29N 31°39' E 121°13'0 0.0
2014-Jul-28 12:32N 31°39' E 121°13'7 1.8
2014-Jul-28 08:32N 31°35' E 121°19'1 0.9
2014-Jul-28 07:32N 31°34' E 121°19'1 0.6
2014-Jul-28 06:33N 31°33' E 121°19'0 0.2
2014-Jul-28 05:33N 31°33' E 121°20'0 0.1
2014-Jul-28 04:33N 31°33' E 121°20'0 0.1
2014-Jul-28 03:33N 31°33' E 121°19'0 0.4
2014-Jul-28 02:33N 31°33' E 121°19'1 0.9
2014-Jul-28 01:32N 31°34' E 121°20'1 0.9
2014-Jul-28 00:33N 31°33' E 121°19'1 0.7
2014-Jul-27 23:33N 31°33' E 121°20'0 0.1
2014-Jul-27 22:30N 31°33' E 121°20'1 0.9
2014-Jul-27 21:33N 31°33' E 121°19'4 0.8
2014-Jul-27 17:03N 31°37' E 121°18'0 0.0
2014-Jul-27 16:31N 31°37' E 121°18'0 0.1
2014-Jul-27 15:33N 31°37' E 121°18'0 0.1
2014-Jul-27 14:33N 31°37' E 121°18'0 0.0
2014-Jul-27 13:33N 31°37' E 121°18'0 0.0
2014-Jul-27 12:31N 31°37' E 121°18'1 0.6
2014-Jul-27 11:28N 31°36' E 121°18'4 3.6
2014-Jul-27 10:28N 31°33' E 121°20'0 0.3
2014-Jul-27 09:33N 31°33' E 121°20'1 0.9
2014-Jul-27 08:31N 31°34' E 121°19'0 0.3
2014-Jul-27 07:33N 31°33' E 121°19'0 0.2
2014-Jul-27 06:33N 31°33' E 121°19'0 0.3
2014-Jul-27 05:33N 31°33' E 121°19'0 0.2
2014-Jul-27 04:32N 31°33' E 121°20'0 0.1
2014-Jul-27 03:33N 31°33' E 121°20'0 0.2
2014-Jul-27 02:33N 31°33' E 121°20'1 0.7
2014-Jul-27 01:33N 31°33' E 121°19'0 0.1
2014-Jul-27 00:33N 31°33' E 121°19'0 0.1
2014-Jul-26 23:33N 31°33' E 121°19'0 0.1
2014-Jul-26 22:33N 31°33' E 121°19'3 3.4
2014-Jul-26 21:33N 31°36' E 121°17'1 0.8
2014-Jul-26 20:33N 31°37' E 121°18'0 0.0
2014-Jul-26 19:21N 31°37' E 121°18'0 0.1
2014-Jul-26 18:32N 31°37' E 121°18'0 0.0
2014-Jul-26 17:05N 31°37' E 121°18'0 0.1
2014-Jul-26 16:31N 31°37' E 121°18'0 0.0
2014-Jul-26 15:23N 31°37' E 121°18'0 0.1
2014-Jul-26 14:31N 31°37' E 121°18'0 0.0
2014-Jul-26 12:22N 31°37' E 121°18'0 0.2
2014-Jul-26 11:29N 31°37' E 121°18'4 4.1
2014-Jul-26 10:30N 31°33' E 121°19'0 0.2
2014-Jul-26 09:33N 31°33' E 121°19'1 0.7
2014-Jul-26 08:33N 31°34' E 121°20'0 0.3
2014-Jul-26 07:32N 31°34' E 121°20'1 0.9
2014-Jul-26 06:33N 31°33' E 121°19'0 0.4
2014-Jul-26 05:33N 31°33' E 121°19'0 0.2
2014-Jul-26 04:33N 31°33' E 121°20'0 0.2
2014-Jul-26 03:33N 31°33' E 121°20'0 0.1
2014-Jul-26 02:33N 31°33' E 121°19'0 0.2
2014-Jul-26 01:33N 31°33' E 121°20'1 0.6
2014-Jul-26 00:33N 31°34' E 121°20'1 0.6
2014-Jul-25 23:32N 31°33' E 121°20'1 0.7
2014-Jul-25 22:33N 31°34' E 121°19'3 2.5
2014-Jul-25 21:32N 31°36' E 121°17'1 0.4
2014-Jul-25 18:19N 31°37' E 121°18'0 0.0
2014-Jul-25 17:32N 31°37' E 121°18'0 0.0
2014-Jul-25 16:33N 31°37' E 121°18'0 0.0
2014-Jul-25 15:32N 31°37' E 121°18'0 0.0
2014-Jul-25 14:33N 31°37' E 121°18'0 0.1
2014-Jul-25 13:25N 31°37' E 121°18'0 0.1
2014-Jul-25 11:33N 31°37' E 121°18'4 4.0
2014-Jul-25 10:32N 31°33' E 121°20'0 0.1
2014-Jul-25 09:33N 31°33' E 121°20'0 0.1
2014-Jul-25 08:32N 31°33' E 121°20'0 0.2
2014-Jul-25 07:33N 31°33' E 121°19'1 0.6
2014-Jul-25 06:32N 31°34' E 121°20'1 0.6
2014-Jul-25 05:33N 31°34' E 121°19'1 0.6
2014-Jul-25 04:33N 31°33' E 121°19'4 1.2
2014-Jul-25 01:22N 31°37' E 121°18'0 0.0
2014-Jul-25 00:31N 31°37' E 121°18'0 0.0
2014-Jul-24 23:29N 31°37' E 121°18'0 0.0
2014-Jul-24 22:22N 31°37' E 121°18'0 0.0
2014-Jul-24 21:19N 31°37' E 121°18'0 0.0
2014-Jul-24 19:14N 31°37' E 121°18'0 0.1
2014-Jul-24 18:33N 31°37' E 121°18'0 0.1
2014-Jul-24 17:33N 31°37' E 121°18'0 0.0
2014-Jul-24 15:33N 31°37' E 121°18'0 0.0
2014-Jul-24 14:08N 31°37' E 121°18'0 0.0
2014-Jul-24 13:32N 31°37' E 121°18'0 0.0
2014-Jul-24 12:22N 31°37' E 121°18'0 0.1
2014-Jul-24 11:30N 31°37' E 121°18'0 0.0
2014-Jul-24 10:32N 31°37' E 121°18'0 0.0
2014-Jul-24 09:33N 31°37' E 121°18'0 0.1
2014-Jul-24 08:31N 31°37' E 121°18'0 0.1
2014-Jul-24 07:26N 31°37' E 121°18'0 0.1
2014-Jul-24 06:33N 31°37' E 121°18'0 0.1
2014-Jul-24 05:33N 31°37' E 121°18'0 0.0
2014-Jul-24 04:33N 31°37' E 121°18'0 0.0
2014-Jul-24 03:19N 31°37' E 121°18'0 0.0
2014-Jul-24 02:28N 31°37' E 121°18'0 0.0
2014-Jul-24 01:10N 31°37' E 121°18'0 0.1
2014-Jul-24 00:28N 31°37' E 121°18'0 0.1
2014-Jul-23 23:33N 31°37' E 121°18'0 0.0
2014-Jul-23 22:31N 31°37' E 121°18'0 0.0
2014-Jul-23 21:33N 31°37' E 121°18'0 0.0
2014-Jul-23 20:33N 31°37' E 121°18'0 0.0
2014-Jul-23 19:33N 31°37' E 121°18'0 0.1
2014-Jul-23 17:33N 31°37' E 121°18'0 0.0
2014-Jul-23 16:33N 31°37' E 121°18'0 0.0
2014-Jul-23 15:33N 31°37' E 121°18'0 0.0
2014-Jul-23 14:33N 31°37' E 121°18'0 0.0
2014-Jul-23 12:31N 31°37' E 121°18'0 0.1
2014-Jul-23 11:28N 31°37' E 121°18'4 4.8
2014-Jul-23 10:33N 31°33' E 121°20'0 0.4
2014-Jul-23 09:33N 31°33' E 121°20'0 0.4
2014-Jul-23 08:26N 31°33' E 121°20'1 1.1
2014-Jul-23 07:32N 31°34' E 121°19'1 1.1
2014-Jul-23 06:33N 31°34' E 121°20'1 0.8
2014-Jul-23 05:33N 31°34' E 121°20'0 0.4
2014-Jul-23 04:33N 31°33' E 121°19'0 0.2
2014-Jul-23 03:33N 31°33' E 121°19'1 0.9
2014-Jul-23 02:33N 31°33' E 121°20'5 5.0
2014-Jul-23 01:33N 31°37' E 121°17'0 0.1
2014-Jul-23 00:33N 31°37' E 121°18'0 0.0
2014-Jul-22 23:32N 31°37' E 121°18'0 0.0
2014-Jul-22 22:32N 31°37' E 121°18'0 0.0
2014-Jul-22 21:32N 31°37' E 121°18'0 0.0
2014-Jul-22 20:32N 31°37' E 121°18'0 0.0
2014-Jul-22 19:33N 31°37' E 121°18'0 0.0
2014-Jul-22 18:33N 31°37' E 121°18'0 0.0
2014-Jul-22 17:31N 31°37' E 121°18'0 0.1
2014-Jul-22 16:30N 31°37' E 121°17'0 0.0
2014-Jul-22 15:32N 31°37' E 121°17'0 0.0
2014-Jul-22 14:33N 31°37' E 121°17'0 0.0
2014-Jul-22 13:33N 31°37' E 121°17'0 0.0
2014-Jul-22 12:33N 31°37' E 121°17'0 0.0
2014-Jul-22 11:33N 31°37' E 121°17'0 0.1
2014-Jul-22 10:33N 31°37' E 121°17'0 0.0
2014-Jul-22 08:25N 31°37' E 121°18'0 0.0
2014-Jul-22 06:14N 31°37' E 121°18'  

Dump ship's entire track history